Map

Track Data

SID SEASON NUMBER BASIN SUBBASIN NAME ISO_TIME NATURE LAT LON WMO_WIND WMO_PRES WMO_AGENCY TRACK_TYPE DIST2LAND LANDFALL IFLAG USA_AGENCY USA_ATCF_ID USA_LAT USA_LON USA_RECORD USA_STATUS USA_WIND USA_PRES USA_SSHS USA_R34_NE USA_R34_SE USA_R34_SW USA_R34_NW USA_R50_NE USA_R50_SE USA_R50_SW USA_R50_NW USA_R64_NE USA_R64_SE USA_R64_SW USA_R64_NW USA_POCI USA_ROCI USA_RMW USA_EYE TOKYO_LAT TOKYO_LON TOKYO_GRADE TOKYO_WIND TOKYO_PRES TOKYO_R50_DIR TOKYO_R50_LONG TOKYO_R50_SHORT TOKYO_R30_DIR TOKYO_R30_LONG TOKYO_R30_SHORT TOKYO_LAND CMA_LAT CMA_LON CMA_CAT CMA_WIND CMA_PRES HKO_LAT HKO_LON HKO_CAT HKO_WIND HKO_PRES NEWDELHI_LAT NEWDELHI_LON NEWDELHI_GRADE NEWDELHI_WIND NEWDELHI_PRES NEWDELHI_CI NEWDELHI_DP NEWDELHI_POCI REUNION_LAT REUNION_LON REUNION_TYPE REUNION_WIND REUNION_PRES REUNION_TNUM REUNION_CI REUNION_RMW REUNION_R34_NE REUNION_R34_SE REUNION_R34_SW REUNION_R34_NW REUNION_R50_NE REUNION_R50_SE REUNION_R50_SW REUNION_R50_NW REUNION_R64_NE REUNION_R64_SE REUNION_R64_SW REUNION_R64_NW BOM_LAT BOM_LON BOM_TYPE BOM_WIND BOM_PRES BOM_TNUM BOM_CI BOM_RMW BOM_R34_NE BOM_R34_SE BOM_R34_SW BOM_R34_NW BOM_R50_NE BOM_R50_SE BOM_R50_SW BOM_R50_NW BOM_R64_NE BOM_R64_SE BOM_R64_SW BOM_R64_NW BOM_ROCI BOM_POCI BOM_EYE BOM_POS_METHOD BOM_PRES_METHOD NADI_LAT NADI_LON NADI_CAT NADI_WIND NADI_PRES WELLINGTON_LAT WELLINGTON_LON WELLINGTON_WIND WELLINGTON_PRES DS824_LAT DS824_LON DS824_STAGE DS824_WIND DS824_PRES TD9636_LAT TD9636_LON TD9636_STAGE TD9636_WIND TD9636_PRES TD9635_LAT TD9635_LON TD9635_WIND TD9635_PRES TD9635_ROCI NEUMANN_LAT NEUMANN_LON NEUMANN_CLASS NEUMANN_WIND NEUMANN_PRES MLC_LAT MLC_LON MLC_CLASS MLC_WIND MLC_PRES USA_GUST BOM_GUST BOM_GUST_PER REUNION_GUST REUNION_GUST_PER USA_SEAHGT USA_SEARAD_NE USA_SEARAD_SE USA_SEARAD_SW USA_SEARAD_NW STORM_SPEED STORM_DIR
2021036S13081 2021 10 SI MM FARAJI 2021-02-05 06:00:00 NR -12.6000 81.4000 PROVISIONAL 2074 2074 O_____________ tcvitals SI192021 -12.6000 81.4000 35 1003 0 50 20 80 65 1008 165 30 11 203
2021036S13081 2021 10 SI MM FARAJI 2021-02-05 09:00:00 NR -13.1150 81.1729 PROVISIONAL 2129 2129 P_____________ SI192021 -13.1150 81.1729 40 1001 0 50 25 80 65 1008 165 25 9 211
2021036S13081 2021 10 SI MM FARAJI 2021-02-05 12:00:00 NR -13.4000 80.9000 PROVISIONAL 2162 2151 O_____________ tcvitals SI192021 -13.4000 80.9000 45 999 0 50 30 80 65 1008 165 20 6 250
2021036S13081 2021 10 SI MM FARAJI 2021-02-05 15:00:00 NR -13.3301 80.5697 PROVISIONAL 2151 2140 P_____________ SI192021 -13.3301 80.5697 48 997 0 50 40 70 57 1008 165 20 6 289
2021036S13081 2021 10 SI MM FARAJI 2021-02-05 18:00:00 NR -13.2000 80.3000 PROVISIONAL 2140 2140 O_____________ tcvitals SI192021 -13.2000 80.3000 51 996 0 50 50 60 50 1008 165 20 3 266
2021036S13081 2021 10 SI MM FARAJI 2021-02-05 21:00:00 NR -13.3549 80.2350 PROVISIONAL 2162 2162 P_____________ SI192021 -13.3549 80.2350 55 991 0 50 50 65 50 1006 160 20 4 193
2021036S13081 2021 10 SI MM FARAJI 2021-02-06 00:00:00 NR -13.6000 80.2000 PROVISIONAL 2185 2185 O_____________ tcvitals SI192021 -13.6000 80.2000 60 987 0 50 50 70 50 1005 155 20 5 207
2021036S13081 2021 10 SI MM FARAJI 2021-02-06 03:00:00 NR -13.8076 79.9926 PROVISIONAL 2208 2208 P_____________ SI192021 -13.8076 79.9926 57 989 0 67 70 77 57 1006 175 20 6 224
2021036S13081 2021 10 SI MM FARAJI 2021-02-06 06:00:00 NR -14.0000 79.8000 PROVISIONAL 2231 2231 O_____________ tcvitals SI192021 -14.0000 79.8000 54 991 0 85 90 85 65 1007 195 20 4 211
2021036S13081 2021 10 SI MM FARAJI 2021-02-06 09:00:00 NR -14.1500 79.7849 PROVISIONAL 2242 2242 P_____________ SI192021 -14.1500 79.7849 62 985 0 90 95 85 72 1006 207 20 3 0
2021036S13081 2021 10 SI MM FARAJI 2021-02-06 12:00:00 NR -14.3000 79.8000 PROVISIONAL 2264 2264 O_____________ tcvitals SI192021 -14.3000 79.8000 70 979 1 95 100 85 80 1005 220 20 4 194
2021036S13081 2021 10 SI MM FARAJI 2021-02-06 15:00:00 NR -14.5075 79.6926 PROVISIONAL 2287 2287 P_____________ SI192021 -14.5075 79.6926 72 978 1 82 95 82 65 1006 210 13 4 206
2021036S13081 2021 10 SI MM FARAJI 2021-02-06 18:00:00 NR -14.7000 79.6000 PROVISIONAL 2310 2310 O_____________ tcvitals SI192021 -14.7000 79.6000 74 978 1 70 90 80 50 1007 200 6 3 191
2021036S13081 2021 10 SI MM FARAJI 2021-02-06 21:00:00 NR -14.8300 79.6199 PROVISIONAL 2321 2321 P_____________ SI192021 -14.8300 79.6199 86 969 2 80 100 90 60 1006 200 5 2 153
2021036S13081 2021 10 SI MM FARAJI 2021-02-07 00:00:00 NR -14.9000 79.7000 PROVISIONAL 2332 2331 O_____________ tcvitals SI192021 -14.9000 79.7000 99 960 3 90 110 100 70 1006 200 5 2 119
2021036S13081 2021 10 SI MM FARAJI 2021-02-07 03:00:00 NR -14.9225 79.8000 PROVISIONAL 2331 2331 P_____________ SI192021 -14.9225 79.8000 107 952 3 85 105 95 75 1006 200 9 2 90
2021036S13081 2021 10 SI MM FARAJI 2021-02-07 06:00:00 NR -14.9000 79.9000 PROVISIONAL 2331 2331 O_____________ tcvitals SI192021 -14.9000 79.9000 115 944 4 80 100 90 80 1007 200 14 2 68
2021036S13081 2021 10 SI MM FARAJI 2021-02-07 09:00:00 NR -14.8650 79.9500 PROVISIONAL 2331 2319 P_____________ SI192021 -14.8650 79.9500 112 945 3 80 100 90 80 1006 195 14 1 43
2021036S13081 2021 10 SI MM FARAJI 2021-02-07 12:00:00 NR -14.8000 80.0000 PROVISIONAL 2319 2308 O_____________ tcvitals SI192021 -14.8000 80.0000 109 946 3 80 100 90 80 1005 190 14 2 34
2021036S13081 2021 10 SI MM FARAJI 2021-02-07 15:00:00 NR -14.7149 80.0549 PROVISIONAL 2308 2297 P_____________ SI192021 -14.7149 80.0549 112 945 3 80 95 80 90 1005 195 14 3 44
2021036S13081 2021 10 SI MM FARAJI 2021-02-07 18:00:00 NR -14.6000 80.2000 PROVISIONAL 2297 2285 O_____________ tcvitals SI192021 -14.6000 80.2000 115 945 4 80 90 70 100 1005 200 14 5 59
2021036S13081 2021 10 SI MM FARAJI 2021-02-07 21:00:00 NR -14.4426 80.5201 PROVISIONAL 2274 2263 P_____________ SI192021 -14.4426 80.5201 112 946 3 80 92 72 105 1005 202 19 7 66
2021036S13081 2021 10 SI MM FARAJI 2021-02-08 00:00:00 NR -14.3000 80.9000 PROVISIONAL 2263 2252 O_____________ tcvitals SI192021 -14.3000 80.9000 109 948 3 80 95 75 110 1005 205 25 7 72
2021036S13081 2021 10 SI MM FARAJI 2021-02-08 03:00:00 NR -14.2275 81.2149 PROVISIONAL 2252 2252 P_____________ SI192021 -14.2275 81.2149 114 943 4 95 117 87 105 1005 207 19 6 80
2021036S13081 2021 10 SI MM FARAJI 2021-02-08 06:00:00 NR -14.2000 81.5000 PROVISIONAL 2254 2254 O_____________ tcvitals SI192021 -14.2000 81.5000 119 938 4 110 140 100 100 1005 210 14 5 86
2021036S13081 2021 10 SI MM FARAJI 2021-02-08 09:00:00 NR -14.1924 81.7575 PROVISIONAL 2255 2255 P_____________ SI192021 -14.1924 81.7575 121 935 4 110 140 100 97 1005 210 14 5 90
2021036S13081 2021 10 SI MM FARAJI 2021-02-08 12:00:00 NR -14.2000 82.0000 PROVISIONAL 2257 2257 O_____________ tcvitals SI192021 -14.2000 82.0000 124 933 4 110 140 100 95 1005 210 14 5 92
2021036S13081 2021 10 SI MM FARAJI 2021-02-08 15:00:00 NR -14.2074 82.2425 PROVISIONAL 2258 2258 P_____________ SI192021 -14.2074 82.2425 131 926 4 92 133 102 80 1006 210 14 5 90
2021036S13081 2021 10 SI MM FARAJI 2021-02-08 18:00:00 NR -14.2000 82.5000 PROVISIONAL 2261 2257 O_____________ tcvitals SI192021 -14.2000 82.5000 138 920 5 75 126 105 65 1007 210 14 6 85
2021036S13081 2021 10 SI MM FARAJI 2021-02-08 21:00:00 NR -14.1575 82.8075 PROVISIONAL 2257 2224 P_____________ SI192021 -14.1575 82.8075 136 921 4 80 118 102 75 1006 205 13 6 80
2021036S13081 2021 10 SI MM FARAJI 2021-02-09 00:00:00 NR -14.1000 83.1000 PROVISIONAL 2224 2200 O_____________ tcvitals SI192021 -14.1000 83.1000 134 923 4 85 110 100 85 1005 200 12 5 73
2021036S13081 2021 10 SI MM FARAJI 2021-02-09 03:00:00 NR -14.0198 83.2851 PROVISIONAL 2200 2183 P_____________ SI192021 -14.0198 83.2851 131 926 4 75 100 97 75 1005 195 8 4 76
2021036S13081 2021 10 SI MM FARAJI 2021-02-09 06:00:00 NR -14.0000 83.5000 PROVISIONAL 2183 2156 O_____________ tcvitals SI192021 -14.0000 83.5000 128 930 4 65 90 95 65 1006 190 5 6 100
2021036S13081 2021 10 SI MM FARAJI 2021-02-09 09:00:00 NR -14.1202 83.8998 PROVISIONAL 2156 2137 P_____________ SI192021 -14.1202 83.8998 123 935 4 65 87 92 62 1005 192 7 8 111
2021036S13081 2021 10 SI MM FARAJI 2021-02-09 12:00:00 NR -14.3000 84.3000 PROVISIONAL 2137 2128 O_____________ tcvitals SI192021 -14.3000 84.3000 119 940 4 65 85 90 60 1005 195 10 7 117
2021036S13081 2021 10 SI MM FARAJI 2021-02-09 15:00:00 NR -14.4349 84.5376 PROVISIONAL 2128 2119 P_____________ SI192021 -14.4349 84.5376 114 945 4 65 105 100 60 1006 195 10 5 128
2021036S13081 2021 10 SI MM FARAJI 2021-02-09 18:00:00 NR -14.6000 84.7000 PROVISIONAL 2127 2125 O_____________ tcvitals SI192021 -14.6000 84.7000 109 951 3 65 126 110 60 1007 195 10 5 141
2021036S13081 2021 10 SI MM FARAJI 2021-02-09 21:00:00 NR -14.8500 84.8799 PROVISIONAL 2133 2133 P_____________ SI192021 -14.8500 84.8799 101 956 3 70 126 110 62 1006 197 15 6 150
2021036S13081 2021 10 SI MM FARAJI 2021-02-10 00:00:00 NR -15.1000 85.0000 PROVISIONAL 2140 2140 O_____________ tcvitals SI192021 -15.1000 85.0000 93 962 2 75 126 110 65 1006 200 20 4 165
2021036S13081 2021 10 SI MM FARAJI 2021-02-10 03:00:00 NR -15.2800 85.0001 PROVISIONAL 2156 2156 P_____________ SI192021 -15.2800 85.0001 93 962 2 75 126 110 67 1006 197 20 3 0
2021036S13081 2021 10 SI MM FARAJI 2021-02-10 06:00:00 NR -15.4000 85.0000 PROVISIONAL 2163 2156 O_____________ tcvitals SI192021 -15.4000 85.0000 93 962 2 75 126 110 70 1006 195 20 2 140
2021036S13081 2021 10 SI MM FARAJI 2021-02-10 09:00:00 NR -15.4425 85.1425 PROVISIONAL 2156 2148 P_____________ SI192021 -15.4425 85.1425 91 963 2 75 126 110 72 1005 192 17 3 109
2021036S13081 2021 10 SI MM FARAJI 2021-02-10 12:00:00 NR -15.5000 85.3000 PROVISIONAL 2148 2148 O_____________ tcvitals SI192021 -15.5000 85.3000 89 964 2 75 126 110 75 1005 190 14 4 135
2021036S13081 2021 10 SI MM FARAJI 2021-02-10 15:00:00 NR -15.6925 85.4024 PROVISIONAL 2157 2157 P_____________ SI192021 -15.6925 85.4024 89 964 2 72 113 115 72 1005 195 13 4 167
2021036S13081 2021 10 SI MM FARAJI 2021-02-10 18:00:00 NR -15.9000 85.4000 PROVISIONAL 2172 2172 O_____________ tcvitals SI192021 -15.9000 85.4000 89 964 2 70 100 120 70 1005 200 12 4 206
2021036S13081 2021 10 SI MM FARAJI 2021-02-10 21:00:00 NR -16.0075 85.2375 PROVISIONAL 2195 2195 P_____________ SI192021 -16.0075 85.2375 91 962 2 75 105 105 82 1005 202 8 4 243
2021036S13081 2021 10 SI MM FARAJI 2021-02-11 00:00:00 NR -16.1000 85.0000 PROVISIONAL 2218 2218 O_____________ tcvitals SI192021 -16.1000 85.0000 93 960 2 80 110 90 95 1005 205 5 5 241
2021036S13081 2021 10 SI MM FARAJI 2021-02-11 03:00:00 NR -16.2500 84.7925 PROVISIONAL 2241 2249 P_____________ SI192021 -16.2500 84.7925 93 961 2 80 142 117 77 1006 190 5 5 232
2021036S13081 2021 10 SI MM FARAJI 2021-02-11 06:00:00 NR -16.4000 84.6000 PROVISIONAL 2272 2272 O_____________ tcvitals SI192021 -16.4000 84.6000 93 962 2 80 175 145 60 1007 175 5 4 233
2021036S13081 2021 10 SI MM FARAJI 2021-02-11 09:00:00 NR -16.4773 84.4797 PROVISIONAL 2288 2288 P_____________ SI192021 -16.4773 84.4797 91 964 2 80 175 145 60 1007 167 7 4 235
2021036S13081 2021 10 SI MM FARAJI 2021-02-11 12:00:00 NR -16.6000 84.3000 PROVISIONAL 2311 2311 O_____________ tcvitals SI192021 -16.6000 84.3000 89 966 2 80 175 145 60 1007 160 10 7 237
2021036S13081 2021 10 SI MM FARAJI 2021-02-11 15:00:00 NR -16.8403 83.9002 PROVISIONAL 2357 2357 P_____________ SI192021 -16.8403 83.9002 84 970 2 77 182 157 57 1007 165 10 10 232
2021036S13081 2021 10 SI MM FARAJI 2021-02-11 18:00:00 NR -17.2000 83.5000 PROVISIONAL 2419 2419 O_____________ tcvitals SI192021 -17.2000 83.5000 80 975 1 75 190 170 55 1008 170 10 10 209
2021036S13081 2021 10 SI MM FARAJI 2021-02-11 21:00:00 NR -17.7371 83.3722 PROVISIONAL 2465 2465 P_____________ SI192021 -17.7371 83.3722 80 975 1 77 158 140 62 1007 160 10 10 196
2021036S13081 2021 10 SI MM FARAJI 2021-02-12 00:00:00 NR -18.2000 83.2000 PROVISIONAL 2520 2520 O_____________ tcvitals SI192021 -18.2000 83.2000 80 975 1 80 126 110 70 1007 150 10 9 229
2021036S13081 2021 10 SI MM FARAJI 2021-02-12 03:00:00 NR -18.3105 82.6722 PROVISIONAL 2565 2557 P_____________ SI192021 -18.3105 82.6722 75 979 1 80 126 110 70 1007 157 10 11 265
2021036S13081 2021 10 SI MM FARAJI 2021-02-12 06:00:00 NR -18.3000 82.1000 PROVISIONAL 2557 2524 O_____________ tcvitals SI192021 -18.3000 82.1000 70 984 1 80 126 110 70 1008 165 10 9 265
2021036S13081 2021 10 SI MM FARAJI 2021-02-12 09:00:00 NR -18.3846 81.7774 PROVISIONAL 2524 2491 P_____________ SI192021 -18.3846 81.7774 65 986 1 72 126 110 60 1007 157 15 6 251
2021036S13081 2021 10 SI MM FARAJI 2021-02-12 12:00:00 NR -18.5000 81.5000 PROVISIONAL 2491 2448 O_____________ tcvitals SI192021 -18.5000 81.5000 60 988 0 65 126 110 50 1006 150 20 7 248
2021036S13081 2021 10 SI MM FARAJI 2021-02-12 15:00:00 NR -18.6502 81.0851 PROVISIONAL 2446 2403 P_____________ SI192021 -18.6502 81.0851 55 992 0 62 103 92 50 1007 150 20 8 248
2021036S13081 2021 10 SI MM FARAJI 2021-02-12 18:00:00 NR -18.8000 80.7000 PROVISIONAL 2403 2381 O_____________ tcvitals SI192021 -18.8000 80.7000 51 996 0 60 80 75 50 1008 150 20 6 248
2021036S13081 2021 10 SI MM FARAJI 2021-02-12 21:00:00 NR -18.8924 80.4549 PROVISIONAL 2381 2358 P_____________ SI192021 -18.8924 80.4549 48 996 0 1008 150 27 4 242
2021036S13081 2021 10 SI MM FARAJI 2021-02-13 00:00:00 NR -19.0000 80.3000 PROVISIONAL 2358 2345 O_____________ tcvitals SI192021 -19.0000 80.3000 45 996 0 1008 150 35 4 219
2021036S13081 2021 10 SI MM FARAJI 2021-02-13 03:00:00 NR -19.1999 80.1925 PROVISIONAL 2345 2332 P_____________ SI192021 -19.1999 80.1925 45 997 0 1008 150 35 4 205
2021036S13081 2021 10 SI MM FARAJI 2021-02-13 06:00:00 NR -19.4000 80.1000 PROVISIONAL 2332 2320 O_____________ tcvitals SI192021 -19.4000 80.1000 45 998 0 60 80 70 50 1008 150 35 4 213
2021036S13081 2021 10 SI MM FARAJI 2021-02-13 09:00:00 NR -19.5225 79.9725 PROVISIONAL 2320 2298 P_____________ SI192021 -19.5225 79.9725 42 999 0 60 80 70 50 1008 150 35 3 235
2021036S13081 2021 10 SI MM FARAJI 2021-02-13 12:00:00 NR -19.6000 79.8000 PROVISIONAL 2298 2277 O_____________ tcvitals SI192021 -19.6000 79.8000 39 1001 0 60 80 70 50 1008 150 35 4 250
2021036S13081 2021 10 SI MM FARAJI 2021-02-13 15:00:00 NR -19.6574 79.5800 PROVISIONAL 2277 2245 P_____________ SI192021 -19.6574 79.5800 37 1002 0 40 85 80 35 1008 150 45 5 258
2021036S13081 2021 10 SI MM FARAJI 2021-02-13 18:00:00 NR -19.7000 79.3000 PROVISIONAL 2245 2214 O_____________ tcvitals SI192021 -19.7000 79.3000 35 1004 0 20 90 90 20 1008 150 55 6 264
2021036S13081 2021 10 SI MM FARAJI 2021-02-13 21:00:00 NR -19.7124 78.9871 PROVISIONAL 2214 2171 P_____________ SI192021 -19.7124 78.9871 35 1003 0 1008 140 55 7 261
2021036S13081 2021 10 SI MM FARAJI 2021-02-14 00:00:00 NR -19.8000 78.6000 PROVISIONAL 2171 2127 O_____________ tcvitals SI192021 -19.8000 78.6000 35 1002 0 1009 130 55 9 242
2021036S13081 2021 10 SI MM FARAJI 2021-02-14 03:00:00 NR -20.1297 78.1609 PROVISIONAL 2127 2062 P_____________ SI192021 -20.1297 78.1609 32 1004 -1 1010 128 55 11 237
2021036S13081 2021 10 SI MM FARAJI 2021-02-14 06:00:00 NR -20.4000 77.6000 PROVISIONAL 2062 1990 O_____________ tcvitals SI192021 -20.4000 77.6000 29 1007 -1 1011 126 55 12 261
2021036S13081 2021 10 SI MM FARAJI 2021-02-14 09:00:00 NR -20.3178 76.8717 PROVISIONAL 1990 1908 P_____________ SI192021 -20.3178 76.8717 27 1007 -1 1010 120 47 14 282
2021036S13081 2021 10 SI MM FARAJI 2021-02-14 12:00:00 NR -20.1000 76.1000 PROVISIONAL 1908 1837 O_____________ tcvitals SI192021 -20.1000 76.1000 25 1007 -1 1009 115 40 14 286
2021036S13081 2021 10 SI MM FARAJI 2021-02-14 15:00:00 NR -19.9349 75.4050 PROVISIONAL 1837 1775 P_____________ SI192021 -19.9349 75.4050 25 1006 -1 1009 115 40 13 284
2021036S13081 2021 10 SI MM FARAJI 2021-02-14 18:00:00 NR -19.8000 74.8000 PROVISIONAL 1775 1734 O_____________ tcvitals SI192021 -19.8000 74.8000 25 1006 -1 1009 115 40 10 282
2021036S13081 2021 10 SI MM FARAJI 2021-02-14 21:00:00 NR -19.7121 74.3275 PROVISIONAL 1724 1682 P_____________ SI192021 -19.7121 74.3275 25 1006 -1 1009 115 40 9 277
2021036S13081 2021 10 SI MM FARAJI 2021-02-15 00:00:00 NR -19.7000 73.9000 PROVISIONAL 1682 1640 O_____________ tcvitals SI192021 -19.7000 73.9000 25 1006 -1 1009 115 40 8 264
2021036S13081 2021 10 SI MM FARAJI 2021-02-15 03:00:00 NR -19.8071 73.4379 PROVISIONAL 1629 1576 P_____________ SI192021 -19.8071 73.4379 25 1007 -1 1010 115 42 10 258
2021036S13081 2021 10 SI MM FARAJI 2021-02-15 06:00:00 NR -19.9000 72.9000 PROVISIONAL 1576 1514 O_____________ tcvitals SI192021 -19.9000 72.9000 25 1009 -1 1011 115 45 11 267
2021036S13081 2021 10 SI MM FARAJI 2021-02-15 09:00:00 NR -19.8747 72.2529 PROVISIONAL 1514 1432 P_____________ SI192021 -19.8747 72.2529 25 1008 -1 1010 117 45 13 279
2021036S13081 2021 10 SI MM FARAJI 2021-02-15 12:00:00 NR -19.7000 71.5000 PROVISIONAL 1432 1353 O_____________ tcvitals SI192021 -19.7000 71.5000 25 1008 -1 1009 120 45 16 290
2021036S13081 2021 10 SI MM FARAJI 2021-02-15 15:00:00 NR -19.3226 70.6567 PROVISIONAL 1353 1266 P_____________ SI192021 -19.3226 70.6567 25 1007 -1 1009 120 45 18 297
2021036S13081 2021 10 SI MM FARAJI 2021-02-15 18:00:00 NR -18.9000 69.8000 PROVISIONAL 1266 1199 O_____________ tcvitals SI192021 -18.9000 69.8000 25 1007 -1 1009 120 45 17 295
2021036S13081 2021 10 SI MM FARAJI 2021-02-15 21:00:00 NR -18.6053 69.0229 PROVISIONAL 1189 1121 P_____________ SI192021 -18.6053 69.0229 25 1007 -1 1009 120 45 15 289
2021036S13081 2021 10 SI MM FARAJI 2021-02-16 00:00:00 NR -18.4000 68.3000 PROVISIONAL 1121 O_____________ tcvitals SI192021 -18.4000 68.3000 25 1008 -1 1010 120 45 14 287

About IBTrACS Database

This database is a web-friendly format of International Best Track Archive for Climate Stewardship (IBTrACS), a global best track data archive curated by NOAA dating back to 1842.

Updated: 2021-12-06